Time;durP1;ratioP1;P1;durP2;ratioP2;P2;SDS_P1;SDS_P2;PMS_P1;PMS_P2;Temp;Humidity;BMP_temperature;BMP_pressure;BME280_temperature;BME280_humidity;BME280_pressure;Samples;Min_cycle;Max_cycle;Signal;HPM_P1;HPM_P2
2023/09/26 00:00:19;;;;;;;8.57;5.67;;;15.50;99.90;;;;;;5073520;28;20497;-66
2023/09/26 00:02:46;;;;;;;7.93;5.47;;;15.50;99.90;;;;;;5073778;28;20127;-66
2023/09/26 00:05:12;;;;;;;8.50;6.10;;;15.50;99.90;;;;;;5073174;28;20140;-66
2023/09/26 00:07:38;;;;;;;9.03;6.23;;;15.50;99.90;;;;;;5073163;28;20044;-66
2023/09/26 00:10:05;;;;;;;8.87;5.90;;;15.50;99.90;;;;;;5073138;28;20056;-66
2023/09/26 00:12:32;;;;;;;9.43;5.97;;;15.50;99.90;;;;;;5072728;28;20107;-66
2023/09/26 00:14:57;;;;;;;8.50;5.93;;;15.40;99.90;;;;;;5073668;28;20071;-66
2023/09/26 00:17:23;;;;;;;9.07;5.60;;;15.40;99.90;;;;;;5073977;28;20469;-66
2023/09/26 00:19:49;;;;;;;8.43;6.30;;;15.40;99.90;;;;;;5072927;28;20048;-66
2023/09/26 00:22:15;;;;;;;8.33;6.27;;;15.30;99.90;;;;;;5073382;28;20084;-66
2023/09/26 00:24:40;;;;;;;8.03;6.23;;;15.30;99.90;;;;;;5073076;28;20044;-66
2023/09/26 00:27:06;;;;;;;10.97;6.27;;;15.30;99.90;;;;;;5073090;28;20048;-66
2023/09/26 00:29:33;;;;;;;8.50;6.90;;;15.20;99.90;;;;;;5072867;28;20044;-66
2023/09/26 00:31:59;;;;;;;9.10;6.50;;;15.20;99.90;;;;;;5072751;28;20082;-66
2023/09/26 00:34:25;;;;;;;9.33;6.67;;;15.20;99.90;;;;;;5072631;28;20466;-66
2023/09/26 00:36:51;;;;;;;9.63;6.17;;;15.20;99.90;;;;;;5072664;28;20113;-66
2023/09/26 00:39:17;;;;;;;9.33;7.47;;;15.20;99.90;;;;;;5072081;28;20124;-66
2023/09/26 00:41:43;;;;;;;11.73;7.13;;;15.20;99.90;;;;;;5074416;28;20048;-67
2023/09/26 00:44:11;;;;;;;8.83;6.97;;;15.20;99.90;;;;;;5076697;28;20051;-66
2023/09/26 00:46:38;;;;;;;9.27;5.97;;;15.20;99.90;;;;;;5076696;28;20036;-66
2023/09/26 00:49:04;;;;;;;9.20;6.80;;;15.20;99.90;;;;;;5076181;28;20142;-66
2023/09/26 00:51:31;;;;;;;10.10;6.63;;;15.20;99.90;;;;;;5076507;28;20071;-66
2023/09/26 00:53:57;;;;;;;11.10;6.83;;;15.20;99.90;;;;;;5076508;28;20135;-66
2023/09/26 00:56:24;;;;;;;12.20;6.70;;;15.20;99.90;;;;;;5076774;28;20484;-66
2023/09/26 00:58:51;;;;;;;8.70;7.27;;;15.10;99.90;;;;;;5076381;28;20051;-66
2023/09/26 01:01:17;;;;;;;11.47;7.70;;;15.10;99.90;;;;;;5076356;28;20084;-66
2023/09/26 01:03:45;;;;;;;10.30;6.93;;;15.10;99.90;;;;;;5076906;28;20056;-67
2023/09/26 01:06:11;;;;;;;9.60;6.80;;;15.10;99.90;;;;;;5076853;28;20037;-66
2023/09/26 01:08:37;;;;;;;13.07;8.10;;;15.10;99.90;;;;;;5076258;28;20374;-66
2023/09/26 01:11:03;;;;;;;7.83;6.60;;;15.00;99.90;;;;;;5075870;28;20575;-66
2023/09/26 01:13:30;;;;;;;11.17;7.43;;;15.10;99.90;;;;;;5076217;28;20119;-66
2023/09/26 01:15:55;;;;;;;10.80;8.17;;;15.00;99.90;;;;;;5074958;28;20049;-66
2023/09/26 01:18:23;;;;;;;11.50;8.37;;;15.10;99.90;;;;;;5075664;28;20075;-66
2023/09/26 01:20:49;;;;;;;10.87;7.33;;;15.00;99.90;;;;;;5076087;28;20033;-66
2023/09/26 01:23:18;;;;;;;11.87;7.70;;;15.00;99.90;;;;;;5075989;28;20048;-66
2023/09/26 01:25:44;;;;;;;12.17;8.20;;;14.90;99.90;;;;;;5076020;28;20040;-66
2023/09/26 01:28:15;;;;;;;10.33;7.13;;;14.90;99.90;;;;;;5075847;28;20508;-66
2023/09/26 01:30:41;;;;;;;12.07;8.53;;;14.90;99.90;;;;;;5076372;28;20048;-66
2023/09/26 01:33:19;;;;;;;11.17;7.80;;;14.90;99.90;;;;;;5076083;28;20500;-66
2023/09/26 01:35:44;;;;;;;9.93;7.47;;;14.90;99.90;;;;;;5075771;28;20049;-66
2023/09/26 01:38:10;;;;;;;9.57;6.97;;;14.90;99.90;;;;;;5075701;28;20051;-66
2023/09/26 01:40:36;;;;;;;9.13;6.97;;;14.80;99.90;;;;;;5075541;28;20484;-66
2023/09/26 01:43:02;;;;;;;9.97;7.20;;;14.70;99.90;;;;;;5075214;28;20065;-66
2023/09/26 01:45:27;;;;;;;10.23;7.33;;;14.80;99.90;;;;;;5075540;28;20052;-66
2023/09/26 01:47:53;;;;;;;10.97;8.07;;;14.70;99.90;;;;;;5075247;28;20051;-67
2023/09/26 01:50:20;;;;;;;12.03;8.10;;;14.70;99.90;;;;;;5076169;28;20131;-66
2023/09/26 01:52:46;;;;;;;8.87;7.37;;;14.70;99.90;;;;;;5074527;28;20047;-66
2023/09/26 01:55:21;;;;;;;10.90;7.17;;;14.60;99.90;;;;;;5075359;28;20053;-66
2023/09/26 01:57:48;;;;;;;10.37;7.40;;;14.60;99.90;;;;;;5075107;28;20476;-66
2023/09/26 02:00:15;;;;;;;13.77;7.23;;;14.60;99.90;;;;;;5075326;28;20044;-66
2023/09/26 02:02:42;;;;;;;8.27;6.83;;;14.50;99.90;;;;;;5075251;28;20048;-66
2023/09/26 02:05:09;;;;;;;10.80;7.70;;;14.50;99.90;;;;;;5075198;28;20500;-66
2023/09/26 02:07:34;;;;;;;10.93;8.47;;;14.50;99.90;;;;;;5075197;28;20093;-66
2023/09/26 02:10:00;;;;;;;10.97;8.00;;;14.40;99.90;;;;;;5075559;28;20518;-66
2023/09/26 02:12:27;;;;;;;10.63;7.23;;;14.40;99.90;;;;;;5075342;28;20048;-66
2023/09/26 02:14:53;;;;;;;10.03;8.10;;;14.40;99.90;;;;;;5074980;28;20048;-66
2023/09/26 02:17:18;;;;;;;11.47;9.13;;;14.40;99.90;;;;;;5074999;28;20048;-66
2023/09/26 02:19:44;;;;;;;11.00;7.73;;;14.40;99.90;;;;;;5074882;28;20055;-66
2023/09/26 02:22:10;;;;;;;10.37;8.27;;;14.40;99.90;;;;;;5074783;28;20071;-66
2023/09/26 02:24:35;;;;;;;12.37;9.33;;;14.40;99.90;;;;;;5074792;28;20055;-66
2023/09/26 02:27:01;;;;;;;11.20;8.43;;;14.30;99.90;;;;;;5074959;28;20123;-66
2023/09/26 02:29:28;;;;;;;10.23;8.63;;;14.30;99.90;;;;;;5075499;28;20041;-66
2023/09/26 02:31:54;;;;;;;11.60;9.37;;;14.30;99.90;;;;;;5074842;28;20076;-68
2023/09/26 02:34:20;;;;;;;12.20;9.50;;;14.30;99.90;;;;;;5074602;28;20520;-66
2023/09/26 02:36:45;;;;;;;12.93;9.37;;;14.40;99.90;;;;;;5074816;28;20070;-66
2023/09/26 02:39:11;;;;;;;13.17;8.87;;;14.30;99.90;;;;;;5074469;28;20477;-66
2023/09/26 02:41:37;;;;;;;10.93;9.60;;;14.30;99.90;;;;;;5074741;28;20051;-66
2023/09/26 02:44:03;;;;;;;11.37;9.00;;;14.30;99.90;;;;;;5074398;28;20182;-66
2023/09/26 02:46:29;;;;;;;11.20;9.63;;;14.30;99.90;;;;;;5074426;28;20089;-66
2023/09/26 02:48:55;;;;;;;11.70;9.53;;;14.30;99.90;;;;;;5074303;28;20487;-66
2023/09/26 02:51:20;;;;;;;12.40;9.97;;;14.30;99.90;;;;;;5074246;28;20040;-66
2023/09/26 02:53:46;;;;;;;11.50;8.90;;;14.30;99.90;;;;;;5074241;28;20477;-66
2023/09/26 02:56:12;;;;;;;11.67;9.20;;;14.20;99.90;;;;;;5074274;28;20052;-66
2023/09/26 02:58:37;;;;;;;12.17;9.20;;;14.20;99.90;;;;;;5073717;28;20049;-66
2023/09/26 03:01:04;;;;;;;10.63;9.53;;;14.20;99.90;;;;;;5074333;28;20048;-66
2023/09/26 03:03:30;;;;;;;12.33;9.90;;;14.20;99.90;;;;;;5074208;28;20045;-66
2023/09/26 03:05:56;;;;;;;13.23;10.17;;;14.20;99.90;;;;;;5073649;28;20044;-66
2023/09/26 03:08:22;;;;;;;11.83;9.30;;;14.20;99.90;;;;;;5074013;28;20047;-66
2023/09/26 03:10:48;;;;;;;12.67;10.10;;;14.20;99.90;;;;;;5072687;28;20504;-66
2023/09/26 03:13:13;;;;;;;12.30;9.33;;;14.20;99.90;;;;;;5073940;28;20060;-66
2023/09/26 03:15:39;;;;;;;10.87;9.33;;;14.20;99.90;;;;;;5073882;28;20048;-66
2023/09/26 03:18:05;;;;;;;12.50;9.63;;;14.20;99.90;;;;;;5074072;28;20079;-66
2023/09/26 03:20:31;;;;;;;15.00;10.17;;;14.20;99.90;;;;;;5073812;28;20123;-66
2023/09/26 03:22:57;;;;;;;14.57;10.77;;;14.20;99.90;;;;;;5073661;28;20036;-66
2023/09/26 03:25:23;;;;;;;12.67;10.57;;;14.10;99.90;;;;;;5073769;28;20063;-66
2023/09/26 03:27:51;;;;;;;13.00;11.27;;;14.10;99.90;;;;;;5073767;28;20048;-66
2023/09/26 03:30:17;;;;;;;14.67;10.17;;;14.10;99.90;;;;;;5073599;28;20048;-66
2023/09/26 03:32:43;;;;;;;13.43;10.23;;;14.10;99.90;;;;;;5073644;28;20125;-66
2023/09/26 03:35:09;;;;;;;12.20;11.00;;;14.10;99.90;;;;;;5073897;28;20495;-66
2023/09/26 03:37:36;;;;;;;12.67;10.50;;;14.00;99.90;;;;;;5074246;28;20164;-66
2023/09/26 03:40:03;;;;;;;14.87;11.07;;;14.00;99.90;;;;;;5073600;28;20045;-67
2023/09/26 03:42:29;;;;;;;12.77;10.87;;;14.00;99.90;;;;;;5072287;28;20052;-66
2023/09/26 03:44:54;;;;;;;14.83;12.43;;;14.00;99.90;;;;;;5072823;28;20098;-66
2023/09/26 03:47:20;;;;;;;12.43;10.67;;;14.00;99.90;;;;;;5055804;28;20054;-66
2023/09/26 03:49:49;;;;;;;12.33;10.73;;;14.00;99.90;;;;;;5074050;28;20048;-66
2023/09/26 03:52:15;;;;;;;13.00;11.63;;;14.00;99.90;;;;;;5073353;28;20472;-66
2023/09/26 03:54:40;;;;;;;13.50;10.77;;;13.90;99.90;;;;;;5073457;28;20060;-66
2023/09/26 03:57:06;;;;;;;17.97;12.10;;;13.90;99.90;;;;;;5073689;28;20078;-66
2023/09/26 03:59:33;;;;;;;12.07;10.00;;;13.90;99.90;;;;;;5073924;28;20049;-66
2023/09/26 04:01:58;;;;;;;16.43;11.20;;;13.90;99.90;;;;;;5072111;28;20149;-66
2023/09/26 04:04:24;;;;;;;11.63;10.27;;;13.90;99.90;;;;;;5073352;28;20131;-66
2023/09/26 04:06:50;;;;;;;14.73;10.33;;;13.90;99.90;;;;;;5073309;28;20135;-66
2023/09/26 04:09:16;;;;;;;11.90;10.00;;;13.90;99.90;;;;;;5073254;28;20051;-66
2023/09/26 04:11:41;;;;;;;12.63;11.20;;;13.90;99.90;;;;;;5073053;28;20057;-66
2023/09/26 04:14:07;;;;;;;11.90;10.47;;;13.90;99.90;;;;;;5072901;28;20088;-67
2023/09/26 04:16:33;;;;;;;14.80;9.97;;;13.90;99.90;;;;;;5075972;28;20044;-66
2023/09/26 04:18:58;;;;;;;11.13;9.93;;;13.90;99.90;;;;;;5076879;28;20041;-66
2023/09/26 04:21:24;;;;;;;13.20;10.10;;;13.90;99.90;;;;;;5077934;28;20040;-66
2023/09/26 04:23:50;;;;;;;14.47;11.33;;;14.00;99.90;;;;;;5077160;28;20086;-66
2023/09/26 04:26:16;;;;;;;13.43;10.23;;;14.00;99.90;;;;;;5077099;28;20044;-66
2023/09/26 04:28:47;;;;;;;14.57;10.07;;;14.10;99.90;;;;;;5077013;28;20045;-66
2023/09/26 04:31:13;;;;;;;11.93;9.80;;;14.10;99.90;;;;;;5076782;28;20052;-67
2023/09/26 04:33:39;;;;;;;14.83;10.30;;;14.10;99.90;;;;;;5076902;28;20071;-66
2023/09/26 04:36:05;;;;;;;14.47;10.30;;;14.10;99.90;;;;;;5076886;28;20740;-66
2023/09/26 04:38:30;;;;;;;11.30;10.10;;;14.10;99.90;;;;;;5077634;28;20045;-66
2023/09/26 04:40:56;;;;;;;12.33;10.57;;;14.10;99.90;;;;;;5076709;28;20036;-66
2023/09/26 04:43:22;;;;;;;12.40;11.10;;;14.10;99.90;;;;;;5077126;28;20052;-66
2023/09/26 04:45:47;;;;;;;11.83;9.80;;;14.00;99.90;;;;;;5077291;28;20059;-66
2023/09/26 04:48:14;;;;;;;12.67;10.00;;;14.00;99.90;;;;;;5076950;28;20080;-66
2023/09/26 04:50:40;;;;;;;13.17;10.63;;;14.00;99.90;;;;;;5075249;28;20051;-66
2023/09/26 04:53:06;;;;;;;12.43;10.37;;;14.00;99.90;;;;;;5074484;28;20048;-66
2023/09/26 04:55:31;;;;;;;11.93;10.23;;;14.00;99.90;;;;;;5075516;28;20056;-66
2023/09/26 04:57:57;;;;;;;11.87;10.67;;;14.00;99.90;;;;;;5076456;28;20045;-66
2023/09/26 05:00:23;;;;;;;13.10;10.90;;;14.00;99.90;;;;;;5076417;28;20173;-66
2023/09/26 05:02:52;;;;;;;13.60;10.00;;;13.90;99.90;;;;;;5076684;28;20123;-66
2023/09/26 05:05:19;;;;;;;13.80;10.07;;;13.90;99.90;;;;;;5076009;28;20286;-66
2023/09/26 05:07:45;;;;;;;12.27;11.00;;;13.90;99.90;;;;;;5076541;28;20040;-66
2023/09/26 05:10:14;;;;;;;12.17;10.87;;;14.00;99.90;;;;;;5075020;28;20162;-66
2023/09/26 05:12:40;;;;;;;13.33;11.37;;;13.90;99.90;;;;;;5075597;28;20053;-66
2023/09/26 05:15:14;;;;;;;13.90;11.53;;;13.90;99.90;;;;;;5076001;28;20057;-66
2023/09/26 05:17:47;;;;;;;15.20;12.20;;;13.90;99.90;;;;;;5074956;28;20040;-66
2023/09/26 05:20:13;;;;;;;13.10;11.37;;;13.90;99.90;;;;;;5075412;28;20048;-66
2023/09/26 05:22:41;;;;;;;14.47;12.17;;;13.80;99.90;;;;;;5076266;28;20376;-66
2023/09/26 05:25:07;;;;;;;15.13;11.33;;;13.80;99.90;;;;;;5076720;28;20044;-66
2023/09/26 05:27:33;;;;;;;13.97;11.90;;;13.80;99.90;;;;;;5075240;28;20275;-66
2023/09/26 05:29:59;;;;;;;12.60;10.63;;;13.90;99.90;;;;;;5074689;28;20451;-66
2023/09/26 05:32:25;;;;;;;15.87;12.10;;;13.90;99.90;;;;;;5075750;28;20044;-66
2023/09/26 05:34:51;;;;;;;14.27;11.43;;;13.80;99.90;;;;;;5076129;28;20041;-66
2023/09/26 05:37:17;;;;;;;16.57;12.73;;;13.90;99.90;;;;;;5074471;28;20044;-68
2023/09/26 05:39:42;;;;;;;14.27;12.33;;;13.90;99.90;;;;;;5075875;28;20044;-66
2023/09/26 05:42:11;;;;;;;14.23;11.73;;;13.90;99.90;;;;;;5075517;28;20036;-66
2023/09/26 05:44:37;;;;;;;14.93;11.17;;;13.80;99.90;;;;;;5075624;28;20393;-66
2023/09/26 05:47:03;;;;;;;14.13;12.47;;;13.80;99.90;;;;;;5075549;28;20282;-66
2023/09/26 05:49:30;;;;;;;14.27;11.77;;;13.80;99.90;;;;;;5074323;28;20048;-66
2023/09/26 05:51:55;;;;;;;13.37;11.47;;;13.80;99.90;;;;;;5075433;28;20037;-66
2023/09/26 05:54:21;;;;;;;13.30;11.87;;;13.80;99.90;;;;;;5075416;28;20049;-66
2023/09/26 05:56:47;;;;;;;14.23;12.23;;;13.80;99.90;;;;;;5075413;28;20050;-66
2023/09/26 05:59:12;;;;;;;13.73;11.33;;;13.90;99.90;;;;;;5073830;28;20485;-66
2023/09/26 06:01:38;;;;;;;16.07;12.80;;;13.90;99.90;;;;;;5075071;28;20063;-66
2023/09/26 06:04:04;;;;;;;16.77;11.93;;;13.90;99.90;;;;;;5075972;28;20048;-66
2023/09/26 06:06:32;;;;;;;12.43;11.07;;;14.00;99.90;;;;;;5075160;28;20044;-66
2023/09/26 06:08:58;;;;;;;17.13;11.87;;;14.00;99.90;;;;;;5074840;28;20485;-66
2023/09/26 06:11:24;;;;;;;18.73;12.40;;;14.10;99.90;;;;;;5074862;28;20128;-67
2023/09/26 06:13:52;;;;;;;15.03;11.63;;;14.10;99.90;;;;;;5075197;28;20040;-66
2023/09/26 06:16:19;;;;;;;14.07;11.97;;;14.20;99.90;;;;;;5075089;28;20087;-66
2023/09/26 06:18:44;;;;;;;16.37;12.27;;;14.20;99.90;;;;;;5074900;28;20283;-66
2023/09/26 06:21:13;;;;;;;14.70;12.57;;;14.30;99.90;;;;;;5074676;28;20056;-66
2023/09/26 06:23:38;;;;;;;15.37;12.20;;;14.30;99.90;;;;;;5075394;28;20048;-66
2023/09/26 06:26:04;;;;;;;17.07;12.20;;;14.40;99.90;;;;;;5075664;28;20036;-66
2023/09/26 06:28:31;;;;;;;14.37;11.47;;;14.40;99.90;;;;;;5075282;28;20503;-66
2023/09/26 06:31:05;;;;;;;17.07;12.67;;;14.40;99.90;;;;;;5074987;28;20106;-66
2023/09/26 06:33:31;;;;;;;18.60;12.38;;;14.40;99.90;;;;;;5056890;28;20044;-66
2023/09/26 06:35:57;;;;;;;15.67;12.13;;;14.50;99.90;;;;;;5075178;28;20050;-66
2023/09/26 06:38:23;;;;;;;15.17;12.47;;;14.50;99.90;;;;;;5074633;28;20496;-67
2023/09/26 06:40:59;;;;;;;17.00;12.13;;;14.50;99.90;;;;;;5075322;28;20177;-67
2023/09/26 06:43:24;;;;;;;14.60;12.13;;;14.60;99.90;;;;;;5074507;28;20127;-68
2023/09/26 06:45:50;;;;;;;14.30;11.60;;;14.70;99.90;;;;;;5074951;28;20109;-67
2023/09/26 06:48:16;;;;;;;15.87;11.83;;;14.70;99.90;;;;;;5073075;28;20510;-66
2023/09/26 06:50:43;;;;;;;13.43;11.93;;;14.80;99.90;;;;;;5074222;28;20047;-67
2023/09/26 06:53:08;;;;;;;13.30;11.53;;;14.80;99.90;;;;;;5074368;28;20501;-65
2023/09/26 06:55:39;;;;;;;14.57;11.70;;;14.90;99.90;;;;;;5073923;28;20052;-67
2023/09/26 06:58:05;;;;;;;14.80;11.37;;;15.00;99.90;;;;;;5074442;28;20045;-67
2023/09/26 07:00:31;;;;;;;12.90;11.20;;;15.10;99.90;;;;;;5074087;28;20047;-67
2023/09/26 07:02:56;;;;;;;16.00;11.07;;;15.30;99.90;;;;;;5074329;28;20119;-67
2023/09/26 07:05:23;;;;;;;13.07;10.87;;;15.40;99.90;;;;;;5074640;28;20465;-66
2023/09/26 07:07:49;;;;;;;16.73;11.93;;;15.40;99.90;;;;;;5073292;28;20391;-67
2023/09/26 07:10:14;;;;;;;13.20;11.27;;;15.40;99.90;;;;;;5074249;28;20056;-67
2023/09/26 07:12:40;;;;;;;16.17;10.87;;;15.40;99.90;;;;;;5073827;28;20083;-65
2023/09/26 07:15:09;;;;;;;13.30;10.83;;;15.40;99.90;;;;;;5073486;28;20049;-65
2023/09/26 07:17:35;;;;;;;15.30;11.67;;;15.50;99.90;;;;;;5073861;28;20052;-65
2023/09/26 07:20:01;;;;;;;13.53;12.00;;;15.50;99.90;;;;;;5073823;28;20048;-65
2023/09/26 07:22:27;;;;;;;16.70;12.27;;;15.50;99.90;;;;;;5074079;28;20058;-65
2023/09/26 07:24:52;;;;;;;13.13;11.43;;;15.50;99.90;;;;;;5074313;28;20048;-66
2023/09/26 07:27:19;;;;;;;14.03;11.27;;;15.50;99.90;;;;;;5073766;28;20044;-66
2023/09/26 07:29:48;;;;;;;13.30;11.20;;;15.50;99.90;;;;;;5056272;28;20052;-66
2023/09/26 07:32:17;;;;;;;17.00;11.53;;;15.50;99.90;;;;;;5072435;28;20500;-66
2023/09/26 07:34:42;;;;;;;13.53;12.07;;;15.50;99.90;;;;;;5073609;28;20048;-66
2023/09/26 07:37:10;;;;;;;13.93;11.63;;;15.50;99.90;;;;;;5074162;28;20063;-64
2023/09/26 07:39:35;;;;;;;13.30;11.40;;;15.50;99.90;;;;;;5073623;28;20086;-64
2023/09/26 07:42:01;;;;;;;14.23;11.30;;;15.50;99.90;;;;;;5073630;28;20554;-64
2023/09/26 07:44:27;;;;;;;15.33;12.50;;;15.60;99.90;;;;;;5073575;28;20044;-64
2023/09/26 07:46:53;;;;;;;16.77;11.10;;;15.70;99.90;;;;;;5073736;28;20075;-64
2023/09/26 07:49:19;;;;;;;15.33;11.97;;;15.70;99.90;;;;;;5073492;28;20477;-63
2023/09/26 07:51:45;;;;;;;16.43;11.37;;;15.70;99.90;;;;;;5072937;28;20127;-63
2023/09/26 07:54:11;;;;;;;12.90;10.97;;;15.70;99.90;;;;;;5073500;28;20139;-64
2023/09/26 07:56:37;;;;;;;16.43;10.97;;;15.70;99.90;;;;;;5073405;28;20045;-64
2023/09/26 07:59:03;;;;;;;15.13;11.40;;;15.80;99.90;;;;;;5073659;28;20424;-63
2023/09/26 08:01:28;;;;;;;12.67;11.27;;;15.90;99.90;;;;;;5073414;28;20045;-63
2023/09/26 08:03:57;;;;;;;16.47;11.80;;;16.00;99.90;;;;;;5073547;28;20078;-64
2023/09/26 08:06:23;;;;;;;12.37;10.60;;;16.10;99.90;;;;;;5071869;28;20396;-63
2023/09/26 08:08:48;;;;;;;14.27;12.07;;;16.20;99.90;;;;;;5073796;28;20059;-63
2023/09/26 08:11:14;;;;;;;15.13;11.37;;;16.20;99.90;;;;;;5073270;28;20091;-63
2023/09/26 08:13:40;;;;;;;15.00;11.97;;;16.20;99.90;;;;;;5073791;28;20060;-64
2023/09/26 08:16:07;;;;;;;15.70;10.20;;;16.20;99.90;;;;;;5073926;28;20114;-63
2023/09/26 08:18:32;;;;;;;15.30;10.93;;;16.20;99.90;;;;;;5073280;28;20081;-64
2023/09/26 08:20:58;;;;;;;13.93;10.87;;;16.20;99.90;;;;;;5073344;28;20419;-64
2023/09/26 08:23:30;;;;;;;12.03;10.50;;;16.20;99.90;;;;;;5073116;28;20044;-64
2023/09/26 08:26:01;;;;;;;15.17;11.17;;;16.20;99.90;;;;;;5073163;28;20128;-63
2023/09/26 08:28:28;;;;;;;16.50;11.13;;;16.20;99.90;;;;;;5073168;28;20052;-64
2023/09/26 08:30:56;;;;;;;12.80;10.80;;;16.30;99.90;;;;;;5073013;28;20044;-64
2023/09/26 08:33:24;;;;;;;14.43;10.80;;;16.30;99.90;;;;;;5073303;28;20090;-63
2023/09/26 08:35:51;;;;;;;16.03;11.97;;;16.30;99.90;;;;;;5072999;28;20066;-63
2023/09/26 08:38:17;;;;;;;12.87;10.53;;;16.30;99.90;;;;;;5072969;28;20416;-63
2023/09/26 08:40:44;;;;;;;14.53;11.47;;;16.40;99.90;;;;;;5072944;28;20048;-63
2023/09/26 08:43:13;;;;;;;14.00;10.73;;;16.50;99.90;;;;;;5072962;28;20067;-63
2023/09/26 08:45:40;;;;;;;12.37;10.10;;;16.60;99.90;;;;;;5072919;28;20069;-63
2023/09/26 08:48:06;;;;;;;14.47;9.73;;;16.70;99.90;;;;;;5072911;28;20481;-66
2023/09/26 08:50:32;;;;;;;14.13;10.47;;;16.80;99.90;;;;;;5073327;28;20049;-64
2023/09/26 08:52:59;;;;;;;12.03;9.97;;;16.90;99.90;;;;;;5073364;28;20052;-65
2023/09/26 08:55:27;;;;;;;13.67;10.23;;;16.80;99.90;;;;;;5072799;28;20055;-63
2023/09/26 08:57:55;;;;;;;15.50;10.63;;;16.80;99.90;;;;;;5073604;28;20044;-64
2023/09/26 09:00:22;;;;;;;14.73;10.43;;;16.90;99.90;;;;;;5072910;28;20052;-64
2023/09/26 09:02:49;;;;;;;13.97;10.33;;;16.90;99.90;;;;;;5073671;28;20044;-66
2023/09/26 09:05:21;;;;;;;13.17;9.90;;;16.90;99.90;;;;;;5075252;28;20051;-65
2023/09/26 09:07:47;;;;;;;14.03;10.67;;;17.00;99.90;;;;;;5075081;28;20141;-66
2023/09/26 09:10:16;;;;;;;11.77;9.70;;;17.10;99.90;;;;;;5077012;28;20131;-65
2023/09/26 09:12:47;;;;;;;13.27;9.97;;;17.10;99.90;;;;;;5075844;28;20052;-65
2023/09/26 09:15:20;;;;;;;11.67;9.43;;;17.10;99.90;;;;;;5077038;28;20053;-65
2023/09/26 09:17:47;;;;;;;16.73;9.57;;;17.20;99.90;;;;;;5075884;28;20476;-65
2023/09/26 09:20:16;;;;;;;12.33;8.83;;;17.40;99.90;;;;;;5076894;28;20048;-65
2023/09/26 09:22:46;;;;;;;14.10;8.70;;;17.60;99.90;;;;;;5076128;28;20101;-65
2023/09/26 09:25:12;;;;;;;11.50;9.00;;;17.70;99.90;;;;;;5076058;28;20544;-66
2023/09/26 09:27:40;;;;;;;11.80;8.30;;;17.80;99.90;;;;;;5076715;28;20051;-65
2023/09/26 09:30:14;;;;;;;13.70;9.13;;;17.80;99.90;;;;;;5075944;28;20177;-65
2023/09/26 09:32:41;;;;;;;14.80;8.60;;;17.80;99.90;;;;;;5076671;28;20052;-65
2023/09/26 09:35:10;;;;;;;11.13;7.97;;;17.90;99.90;;;;;;5076560;28;20066;-65
2023/09/26 09:37:35;;;;;;;12.67;8.53;;;17.90;99.90;;;;;;5075788;28;20428;-66
2023/09/26 09:40:01;;;;;;;13.77;9.27;;;18.00;99.90;;;;;;5075583;28;20044;-66
2023/09/26 09:42:27;;;;;;;12.20;9.20;;;18.00;99.90;;;;;;5075718;28;20044;-66
2023/09/26 09:44:53;;;;;;;12.30;8.13;;;18.10;99.90;;;;;;5076129;28;20071;-67
2023/09/26 09:47:25;;;;;;;11.60;8.03;;;18.20;99.90;;;;;;5075648;28;20123;-66
2023/09/26 09:49:52;;;;;;;11.70;9.20;;;18.20;99.90;;;;;;5075870;28;20048;-67
2023/09/26 09:52:19;;;;;;;14.63;8.47;;;18.30;99.90;;;;;;5075502;28;20052;-66
2023/09/26 09:54:46;;;;;;;11.63;8.43;;;18.30;99.90;;;;;;5075727;28;20048;-65
2023/09/26 09:57:14;;;;;;;12.57;8.30;;;18.30;99.90;;;;;;5075658;28;20055;-66
2023/09/26 09:59:42;;;;;;;13.53;8.03;;;18.40;99.90;;;;;;5091557;28;20044;-66
2023/09/26 10:02:10;;;;;;;9.63;7.03;;;18.50;99.90;;;;;;5075260;28;20041;-66
2023/09/26 10:04:39;;;;;;;12.20;8.10;;;18.70;99.90;;;;;;5075269;28;20040;-65
2023/09/26 10:07:05;;;;;;;9.83;6.53;;;18.80;99.90;;;;;;5075191;28;20045;-65
2023/09/26 10:09:35;;;;;;;13.17;7.90;;;18.90;99.90;;;;;;5075704;28;20136;-65
2023/09/26 10:12:02;;;;;;;10.03;7.33;;;19.00;99.90;;;;;;5074998;28;20044;-65
2023/09/26 10:14:30;;;;;;;12.87;7.27;;;19.10;99.90;;;;;;5075325;28;20056;-64
2023/09/26 10:16:57;;;;;;;10.60;7.00;;;19.10;99.90;;;;;;5075006;28;20046;-65
2023/09/26 10:19:25;;;;;;;10.37;6.67;;;19.10;99.90;;;;;;5074959;28;20087;-64
2023/09/26 10:21:52;;;;;;;11.47;7.07;;;19.10;99.90;;;;;;5074917;28;20132;-65
2023/09/26 10:24:18;;;;;;;12.30;6.90;;;19.20;99.90;;;;;;5073948;28;20052;-64
2023/09/26 10:26:49;;;;;;;11.07;6.13;;;19.20;99.90;;;;;;5074151;28;20053;-64
2023/09/26 10:29:14;;;;;;;11.17;6.20;;;19.30;99.90;;;;;;5075362;28;20421;-64
2023/09/26 10:31:46;;;;;;;9.30;6.37;;;19.30;99.90;;;;;;5074663;28;20041;-64
2023/09/26 10:34:12;;;;;;;10.37;6.27;;;19.40;99.90;;;;;;5075523;28;20045;-64
2023/09/26 10:36:38;;;;;;;10.23;7.00;;;19.30;99.90;;;;;;5074264;28;20044;-64
2023/09/26 10:39:05;;;;;;;9.70;6.37;;;19.40;99.90;;;;;;5075105;28;20190;-64
2023/09/26 10:41:32;;;;;;;7.67;5.30;;;19.50;99.90;;;;;;5074528;28;20048;-64
2023/09/26 10:43:58;;;;;;;11.90;5.70;;;19.60;99.90;;;;;;5074405;28;20071;-64
2023/09/26 10:46:24;;;;;;;11.47;5.73;;;19.60;99.90;;;;;;5074412;28;20052;-64
2023/09/26 10:48:50;;;;;;;10.30;5.80;;;19.70;99.90;;;;;;5074420;28;20045;-64
2023/09/26 10:51:17;;;;;;;9.73;5.23;;;19.70;99.90;;;;;;5074787;28;20461;-64
2023/09/26 10:53:44;;;;;;;9.23;5.00;;;19.70;99.90;;;;;;5074809;28;20084;-64
2023/09/26 10:56:10;;;;;;;9.67;5.30;;;19.70;99.90;;;;;;5072897;28;20045;-64
2023/09/26 10:58:36;;;;;;;9.33;5.10;;;19.70;99.90;;;;;;5074154;28;20079;-67
2023/09/26 11:01:02;;;;;;;9.13;5.60;;;19.70;99.90;;;;;;5056752;28;20091;-63
2023/09/26 11:03:31;;;;;;;12.10;5.93;;;19.70;99.90;;;;;;5074579;28;20051;-64
2023/09/26 11:05:57;;;;;;;9.97;5.30;;;19.70;99.90;;;;;;5074490;28;20067;-65
2023/09/26 11:08:24;;;;;;;10.63;5.20;;;19.70;99.90;;;;;;5072830;28;20045;-65
2023/09/26 11:10:50;;;;;;;10.10;5.33;;;19.70;99.90;;;;;;5073833;28;20123;-64
2023/09/26 11:13:17;;;;;;;10.23;5.67;;;19.70;99.90;;;;;;5073504;28;20056;-65
2023/09/26 11:15:45;;;;;;;8.30;5.53;;;19.80;99.90;;;;;;5073709;28;20139;-66
2023/09/26 11:18:12;;;;;;;7.97;4.90;;;19.80;99.90;;;;;;5073832;28;20123;-65
2023/09/26 11:20:39;;;;;;;7.93;5.17;;;19.80;99.90;;;;;;5072911;28;20195;-65
2023/09/26 11:23:05;;;;;;;12.73;5.73;;;19.90;99.90;;;;;;5056161;28;20105;-66
2023/09/26 11:25:32;;;;;;;11.90;5.13;;;19.80;99.90;;;;;;5073346;28;20044;-66
2023/09/26 11:27:57;;;;;;;11.00;5.70;;;19.90;99.90;;;;;;5073079;28;20194;-65
2023/09/26 11:30:23;;;;;;;10.43;5.33;;;19.80;99.90;;;;;;5074373;28;20123;-65
2023/09/26 11:32:54;;;;;;;9.90;5.47;;;19.80;99.90;;;;;;5072820;28;20048;-65
2023/09/26 11:35:20;;;;;;;12.37;5.60;;;19.90;99.90;;;;;;5072965;28;20044;-64
2023/09/26 11:37:50;;;;;;;9.93;5.43;;;19.90;99.90;;;;;;5073576;28;20044;-64
2023/09/26 11:40:24;;;;;;;7.70;5.30;;;19.90;99.90;;;;;;5073444;28;20134;-64
2023/09/26 11:42:55;;;;;;;9.32;5.18;;;19.90;99.90;;;;;;5073251;28;20045;-64
2023/09/26 11:45:21;;;;;;;11.53;5.43;;;19.90;99.90;;;;;;5073578;28;20047;-64
2023/09/26 11:47:47;;;;;;;12.00;5.27;;;20.00;99.90;;;;;;5073460;28;20051;-64
2023/09/26 11:50:13;;;;;;;7.97;4.90;;;20.00;99.90;;;;;;5073086;28;20078;-64
2023/09/26 11:52:40;;;;;;;10.10;5.03;;;20.00;99.90;;;;;;5073587;28;20131;-64
2023/09/26 11:55:06;;;;;;;9.13;5.30;;;20.10;99.90;;;;;;5073893;28;20053;-64
2023/09/26 11:57:36;;;;;;;8.60;5.10;;;20.10;99.90;;;;;;5073422;28;20060;-64
2023/09/26 12:00:07;;;;;;;9.03;5.83;;;20.10;99.90;;;;;;5073367;28;20070;-64
2023/09/26 12:02:33;;;;;;;9.20;5.70;;;20.20;99.90;;;;;;5072299;28;20124;-64
2023/09/26 12:04:59;;;;;;;9.57;5.33;;;20.20;99.90;;;;;;5072689;28;20080;-64
2023/09/26 12:07:25;;;;;;;10.87;5.57;;;20.20;99.90;;;;;;5073330;28;20044;-64
2023/09/26 12:09:50;;;;;;;12.90;5.33;;;20.20;99.90;;;;;;5073319;28;20572;-64
2023/09/26 12:12:16;;;;;;;9.50;4.73;;;20.20;99.90;;;;;;5072661;28;20158;-64
2023/09/26 12:14:45;;;;;;;9.20;5.50;;;20.20;99.90;;;;;;5072950;28;20094;-64
2023/09/26 12:17:11;;;;;;;8.60;4.90;;;20.20;99.90;;;;;;5073260;28;20048;-64
2023/09/26 12:19:38;;;;;;;7.53;4.63;;;20.30;99.90;;;;;;5073484;28;20090;-64
2023/09/26 12:22:04;;;;;;;8.30;5.63;;;20.30;99.90;;;;;;5073201;28;20044;-64
2023/09/26 12:24:29;;;;;;;8.97;5.13;;;20.30;99.90;;;;;;5073192;28;20503;-64
2023/09/26 12:26:55;;;;;;;8.93;5.23;;;20.40;99.90;;;;;;5073178;28;20180;-64
2023/09/26 12:29:21;;;;;;;9.13;5.67;;;20.40;99.90;;;;;;5073106;28;20044;-64